Time;durP1;ratioP1;P1;durP2;ratioP2;P2;SDS_P1;SDS_P2;PMS_P1;PMS_P2;Temp;Humidity;BMP_temperature;BMP_pressure;BME280_temperature;BME280_humidity;BME280_pressure;Samples;Min_cycle;Max_cycle;Signal;HPM_P1;HPM_P2
2022/08/23 00:01:41;;;;;;;6.47;2.90;;;;;;;18.43;57.21;101147.47;5033764;28;20124;-70
2022/08/23 00:04:12;;;;;;;9.98;2.78;;;;;;;18.38;57.16;101153.53;5029394;28;20049;-70
2022/08/23 00:06:40;;;;;;;8.45;2.65;;;;;;;18.38;57.50;101155.41;5033632;28;20124;-70
2022/08/23 00:09:08;;;;;;;7.03;2.72;;;;;;;18.41;57.54;101155.84;5029451;28;20057;-69
2022/08/23 00:11:46;;;;;;;7.13;2.92;;;;;;;18.48;57.40;101140.41;5004878;28;20052;-69
2022/08/23 00:14:26;;;;;;;5.78;2.35;;;;;;;18.45;57.34;101135.38;5018631;28;20129;-70
2022/08/23 00:16:55;;;;;;;8.37;3.00;;;;;;;18.46;57.67;101138.91;5013578;28;20536;-70
2022/08/23 00:19:22;;;;;;;8.93;3.20;;;;;;;18.49;57.62;101138.50;5012793;28;20369;-70
2022/08/23 00:21:51;;;;;;;7.47;3.22;;;;;;;18.47;57.68;101137.88;5013424;28;20545;-70
2022/08/23 00:24:18;;;;;;;7.20;2.80;;;;;;;18.51;57.89;101136.41;5013621;28;20081;-68
2022/08/23 00:26:57;;;;;;;9.25;3.30;;;;;;;18.46;57.71;101128.06;5013199;28;20045;-70
2022/08/23 00:29:37;;;;;;;11.68;2.95;;;;;;;18.51;57.77;101128.25;4994785;28;20136;-70
2022/08/23 00:32:06;;;;;;;9.30;3.47;;;;;;;18.27;58.53;101132.34;5012496;28;20069;-70
2022/08/23 00:34:34;;;;;;;6.50;2.75;;;;;;;18.35;58.70;101129.47;5013187;28;20468;-70
2022/08/23 00:37:01;;;;;;;14.57;2.97;;;;;;;18.26;58.98;101125.25;5012894;28;20140;-69
2022/08/23 00:39:28;;;;;;;9.38;3.17;;;;;;;18.14;59.23;101126.81;5010313;28;20068;-69
2022/08/23 00:48:00;;;;;;;8.45;3.00;;;;;;;18.35;58.14;101124.03;5013121;28;20129;-69
2022/08/23 00:50:42;;;;;;;6.30;2.78;;;;;;;18.35;58.10;101121.31;5013185;28;20050;-69
2022/08/23 00:53:15;;;;;;;7.45;3.30;;;;;;;18.38;58.15;101122.81;5007708;28;20065;-69
2022/08/23 00:55:45;;;;;;;7.47;3.67;;;;;;;18.40;57.83;101121.53;5022107;28;20408;-69
2022/08/23 00:58:17;;;;;;;11.77;3.33;;;;;;;18.38;57.70;101117.38;5032387;28;20132;-68
2022/08/23 01:00:45;;;;;;;9.98;3.35;;;;;;;18.34;57.85;101116.91;5033114;28;20533;-69
2022/08/23 01:03:12;;;;;;;11.60;3.58;;;;;;;18.35;57.65;101118.59;5032811;28;20252;-69
2022/08/23 01:09:21;;;;;;;6.15;3.22;;;;;;;18.29;57.98;101128.38;5023368;28;20052;-69
2022/08/23 01:12:09;;;;;;;11.50;3.65;;;;;;;18.25;57.70;101116.25;5032574;28;20049;-68
2022/08/23 01:14:56;;;;;;;12.15;3.72;;;;;;;18.21;57.91;101106.00;5032093;28;20084;-69
2022/08/23 01:17:39;;;;;;;7.43;3.40;;;;;;;18.27;57.08;101102.47;5023633;28;20069;-69
2022/08/23 01:20:15;;;;;;;9.75;3.60;;;;;;;18.24;57.35;101111.88;5044497;28;20050;-69
2022/08/23 01:22:56;;;;;;;9.23;3.55;;;;;;;18.27;57.20;101107.91;5032178;28;20052;-69
2022/08/23 01:25:26;;;;;;;10.60;4.55;;;;;;;18.25;57.00;101113.53;5015024;28;20104;-69
2022/08/23 01:27:53;;;;;;;10.65;4.32;;;;;;;18.20;57.13;101126.03;5032185;28;20096;-69
2022/08/23 01:30:24;;;;;;;16.15;5.95;;;;;;;18.21;56.98;101125.84;5031372;28;20049;-69
2022/08/23 01:32:55;;;;;;;11.20;4.90;;;;;;;18.21;56.95;101120.41;5031623;28;20125;-69
2022/08/23 01:35:30;;;;;;;11.80;5.38;;;;;;;18.16;57.40;101127.47;5026508;28;20100;-69
2022/08/23 01:37:56;;;;;;;14.52;5.35;;;;;;;18.14;57.08;101126.81;5031026;28;20042;-69
2022/08/23 01:40:23;;;;;;;14.07;5.13;;;;;;;18.15;57.04;101121.22;5031512;28;20149;-69
2022/08/23 01:42:49;;;;;;;11.38;4.68;;;;;;;18.05;57.38;101129.69;5031792;28;20068;-69
2022/08/23 01:45:16;;;;;;;15.75;4.20;;;;;;;18.08;56.39;101118.44;5031759;28;20049;-69
2022/08/23 01:47:42;;;;;;;11.88;4.32;;;;;;;18.09;56.46;101125.53;5031900;28;20041;-68
2022/08/23 01:50:11;;;;;;;9.80;4.13;;;;;;;18.15;56.07;101123.94;5031488;28;20549;-69
2022/08/23 01:52:39;;;;;;;9.35;3.58;;;;;;;18.04;55.84;101128.03;5025564;28;20060;-68
2022/08/23 01:55:23;;;;;;;9.15;3.50;;;;;;;18.02;56.03;101121.09;5031530;28;20052;-68
2022/08/23 01:57:54;;;;;;;10.05;3.53;;;;;;;18.05;55.85;101123.41;5031125;28;20099;-68
2022/08/23 02:00:24;;;;;;;11.77;3.03;;;;;;;18.09;56.01;101114.66;5031034;28;20129;-70
2022/08/23 02:02:51;;;;;;;9.48;3.05;;;;;;;18.09;55.54;101130.97;5030402;28;20409;-68
2022/08/23 02:05:18;;;;;;;5.97;2.95;;;;;;;18.02;55.60;101121.94;5030886;28;20049;-68
2022/08/23 02:07:45;;;;;;;7.70;3.13;;;;;;;18.07;55.47;101114.03;5032416;28;20124;-68
2022/08/23 02:10:12;;;;;;;8.50;2.70;;;;;;;18.05;55.59;101118.81;5024698;28;20072;-68
2022/08/23 02:12:39;;;;;;;12.50;2.97;;;;;;;18.07;55.49;101116.75;5031174;28;20128;-68
2022/08/23 02:15:06;;;;;;;15.88;3.08;;;;;;;18.05;55.45;101118.00;5031203;28;20560;-68
2022/08/23 02:17:33;;;;;;;11.40;3.15;;;;;;;18.01;55.57;101119.44;5030650;28;20621;-69
2022/08/23 02:20:01;;;;;;;7.25;2.65;;;;;;;17.96;55.50;101103.75;5030788;28;20121;-69
2022/08/23 02:22:28;;;;;;;8.80;2.67;;;;;;;17.95;55.72;101112.09;5030994;28;20050;-69
2022/08/23 02:24:54;;;;;;;8.18;2.72;;;;;;;17.96;55.26;101106.47;5030814;28;20049;-69
2022/08/23 02:27:21;;;;;;;9.02;2.70;;;;;;;17.98;55.17;101104.38;5031080;28;20072;-69
2022/08/23 02:29:49;;;;;;;9.30;2.88;;;;;;;17.99;55.13;101108.75;5030849;28;20092;-69
2022/08/23 02:32:18;;;;;;;6.80;2.55;;;;;;;17.79;55.83;101105.09;5030630;28;20489;-68
2022/08/23 02:34:46;;;;;;;6.95;2.72;;;;;;;17.52;56.96;101095.94;5032881;28;20042;-68
2022/08/23 02:37:30;;;;;;;9.77;3.95;;;;;;;17.71;56.19;101092.50;5034137;28;20053;-68
2022/08/23 02:39:57;;;;;;;10.15;2.70;;;;;;;17.57;56.92;101098.88;5035089;28;20053;-68
2022/08/23 02:42:23;;;;;;;8.80;3.15;;;;;;;17.63;56.98;101102.69;5034358;28;20053;-68
2022/08/23 02:44:50;;;;;;;13.15;3.60;;;;;;;17.41;57.82;101110.88;5034538;28;20446;-68
2022/08/23 02:47:17;;;;;;;5.13;2.72;;;;;;;17.52;57.53;101101.38;5034827;28;20141;-69
2022/08/23 02:49:43;;;;;;;9.57;3.15;;;;;;;17.23;58.65;101102.31;5035165;28;20064;-69
2022/08/23 02:52:09;;;;;;;10.98;2.92;;;;;;;17.50;57.82;101112.41;5034260;28;20129;-69
2022/08/23 02:54:36;;;;;;;8.65;3.30;;;;;;;17.41;58.08;101116.31;5034646;28;20091;-69
2022/08/23 02:57:04;;;;;;;10.43;2.75;;;;;;;17.61;57.76;101119.16;5034454;28;20068;-69
2022/08/23 02:59:30;;;;;;;6.35;2.75;;;;;;;17.59;57.84;101127.50;5035388;28;20400;-69
2022/08/23 03:01:57;;;;;;;6.63;2.65;;;;;;;17.61;57.83;101121.88;5034017;28;20133;-69
2022/08/23 03:04:24;;;;;;;11.90;3.10;;;;;;;17.66;57.61;101124.84;5034535;28;20076;-68
2022/08/23 03:06:51;;;;;;;7.65;2.53;;;;;;;17.73;57.49;101122.19;5034584;28;20476;-68
2022/08/23 03:09:18;;;;;;;12.45;2.83;;;;;;;17.78;57.06;101134.09;5033923;28;20156;-68
2022/08/23 03:11:46;;;;;;;7.15;3.13;;;;;;;17.70;57.50;101130.72;5034748;28;20466;-70
2022/08/23 03:14:13;;;;;;;8.35;3.03;;;;;;;17.80;57.37;101137.47;5030549;28;20500;-69
2022/08/23 03:16:40;;;;;;;14.23;3.45;;;;;;;17.81;57.21;101132.88;5033988;28;20140;-69
2022/08/23 03:19:07;;;;;;;16.85;4.05;;;;;;;17.67;58.02;101136.53;5030655;28;20132;-69
2022/08/23 03:21:34;;;;;;;12.10;3.47;;;;;;;17.68;57.84;101135.47;5034260;28;20075;-69
2022/08/23 03:24:00;;;;;;;9.65;3.38;;;;;;;17.67;57.90;101137.34;5033282;28;20128;-69
2022/08/23 03:26:32;;;;;;;12.75;3.47;;;;;;;17.56;58.46;101136.03;5033292;28;20404;-69
2022/08/23 03:28:58;;;;;;;9.23;3.60;;;;;;;17.47;58.66;101139.91;5034147;28;20132;-69
2022/08/23 03:31:25;;;;;;;10.45;3.67;;;;;;;17.59;58.29;101141.06;5033535;28;20137;-69
2022/08/23 03:33:56;;;;;;;7.57;3.38;;;;;;;17.30;59.70;101146.59;5033462;28;20050;-69
2022/08/23 03:36:23;;;;;;;12.90;3.60;;;;;;;17.17;59.75;101139.19;5033553;28;20144;-69
2022/08/23 03:38:54;;;;;;;11.20;3.75;;;;;;;17.30;59.64;101144.75;5033127;28;20072;-69
2022/08/23 03:41:21;;;;;;;10.50;3.63;;;;;;;17.22;60.15;101136.72;5034081;28;20057;-69
2022/08/23 03:43:47;;;;;;;9.60;3.80;;;;;;;17.42;59.61;101147.81;5034624;28;20049;-69
2022/08/23 03:46:21;;;;;;;12.18;4.25;;;;;;;17.42;59.42;101146.97;5032409;28;20470;-69
2022/08/23 03:48:56;;;;;;;12.25;4.43;;;;;;;17.23;60.17;101148.41;5034034;28;20041;-69
2022/08/23 03:51:24;;;;;;;8.88;3.50;;;;;;;17.29;60.09;101150.34;5033255;28;20057;-69
2022/08/23 03:53:51;;;;;;;13.15;3.97;;;;;;;17.35;59.93;101155.88;5033505;28;20045;-68
2022/08/23 03:56:32;;;;;;;10.85;3.72;;;;;;;17.48;59.77;101148.91;5033879;28;20133;-69
2022/08/23 03:59:02;;;;;;;10.80;3.85;;;;;;;17.56;59.34;101151.47;5032737;28;20116;-69
2022/08/23 04:01:28;;;;;;;10.38;3.75;;;;;;;17.45;59.65;101160.97;5032881;28;20136;-68
2022/08/23 04:03:58;;;;;;;9.13;3.60;;;;;;;17.59;59.21;101151.91;5033000;28;20045;-68
2022/08/23 04:06:26;;;;;;;9.68;4.05;;;;;;;17.51;59.47;101153.91;5032602;28;20497;-69
2022/08/23 04:08:54;;;;;;;11.27;3.60;;;;;;;17.59;59.52;101149.19;5029186;28;20060;-69
2022/08/23 04:11:22;;;;;;;7.82;3.95;;;;;;;17.66;59.45;101145.72;5030502;28;20069;-69
2022/08/23 04:13:49;;;;;;;15.55;4.15;;;;;;;17.72;58.95;101151.19;5027734;28;20401;-68
2022/08/23 04:16:17;;;;;;;13.73;4.13;;;;;;;17.42;60.04;101149.69;5037681;28;20529;-68
2022/08/23 04:18:44;;;;;;;11.43;4.40;;;;;;;17.31;60.65;101151.84;5032783;28;20168;-69
2022/08/23 04:21:18;;;;;;;11.77;4.25;;;;;;;17.41;60.04;101148.84;5027691;28;20076;-70
2022/08/23 04:23:45;;;;;;;15.38;4.70;;;;;;;17.46;60.14;101148.25;5032367;28;20045;-69
2022/08/23 04:26:11;;;;;;;14.18;4.88;;;;;;;17.61;59.88;101146.28;5027603;28;20519;-69
2022/08/23 04:28:38;;;;;;;13.93;4.75;;;;;;;17.61;59.68;101143.56;5031707;28;20489;-69
2022/08/23 04:31:05;;;;;;;9.98;4.07;;;;;;;17.65;59.75;101153.03;5032737;28;20120;-68
2022/08/23 04:33:33;;;;;;;15.57;4.63;;;;;;;17.66;59.85;101156.56;5032080;28;20128;-69
2022/08/23 04:36:00;;;;;;;14.43;4.60;;;;;;;17.70;59.30;101147.00;5033001;28;20045;-69
2022/08/23 04:38:27;;;;;;;13.63;4.55;;;;;;;17.71;59.59;101152.19;5032333;28;20056;-69
2022/08/23 04:43:42;;;;;;;11.73;4.78;;;;;;;17.84;58.93;101162.34;5032236;28;20401;-68
2022/08/23 04:46:10;;;;;;;9.07;4.18;;;;;;;17.73;59.53;101155.56;5031844;28;20547;-69
2022/08/23 04:48:36;;;;;;;12.65;4.30;;;;;;;17.75;59.27;101155.38;5032483;28;20046;-68
2022/08/23 04:51:03;;;;;;;11.25;4.15;;;;;;;17.78;59.35;101163.94;5032266;28;20064;-69
2022/08/23 04:53:31;;;;;;;16.55;4.35;;;;;;;17.64;59.66;101166.75;5031255;28;20069;-68
2022/08/23 04:55:58;;;;;;;10.70;4.32;;;;;;;17.75;59.29;101166.22;5032745;28;20521;-69
2022/08/23 04:58:24;;;;;;;11.02;4.13;;;;;;;17.58;59.68;101171.13;5013198;28;20131;-67
2022/08/23 05:00:51;;;;;;;14.80;4.97;;;;;;;17.61;60.12;101173.41;5032051;28;20124;-69
2022/08/23 05:03:18;;;;;;;9.93;4.35;;;;;;;17.48;60.42;101176.88;5032479;28;20041;-68
2022/08/23 05:05:45;;;;;;;13.50;4.75;;;;;;;;;;5031350;28;20133;-68
2022/08/23 05:08:12;;;;;;;11.82;4.13;;;;;;;17.49;60.40;101183.13;5031334;28;20128;-68
2022/08/23 05:10:39;;;;;;;13.13;4.18;;;;;;;17.59;60.08;101181.75;5032167;28;20128;-68
2022/08/23 05:13:05;;;;;;;12.40;4.65;;;;;;;17.63;60.07;101178.66;5031402;28;20466;-68
2022/08/23 05:15:32;;;;;;;12.90;4.38;;;;;;;17.51;60.31;101179.19;5031703;28;20080;-68
2022/08/23 05:17:58;;;;;;;13.05;4.93;;;;;;;17.67;60.05;101179.94;5031737;28;20069;-67
2022/08/23 05:20:25;;;;;;;12.90;4.72;;;;;;;17.57;60.19;101189.25;5031318;28;20103;-67
2022/08/23 05:22:51;;;;;;;12.23;4.55;;;;;;;17.56;60.21;101184.84;5032894;28;20091;-68
2022/08/23 05:25:18;;;;;;;17.25;4.88;;;;;;;17.76;60.07;101186.91;5032189;28;20272;-68
2022/08/23 05:27:45;;;;;;;9.80;4.38;;;;;;;17.68;60.19;101184.31;5031050;28;20377;-69
2022/08/23 05:30:11;;;;;;;15.73;4.55;;;;;;;17.74;60.17;101188.97;5030884;28;20129;-69
2022/08/23 05:32:41;;;;;;;10.50;4.00;;;;;;;17.81;59.83;101187.97;5030509;28;20053;-69
2022/08/23 05:35:08;;;;;;;13.02;4.22;;;;;;;17.74;60.02;101191.69;5031886;28;20049;-69
2022/08/23 05:37:34;;;;;;;17.40;4.63;;;;;;;17.63;60.43;101193.06;5031110;28;20451;-69
2022/08/23 05:40:01;;;;;;;11.15;4.60;;;;;;;17.83;59.83;101191.34;5030785;28;20071;-69
2022/08/23 05:42:28;;;;;;;11.18;4.05;;;;;;;17.93;59.45;101191.00;5031768;28;20065;-69
2022/08/23 05:44:55;;;;;;;11.85;3.88;;;;;;;18.02;59.51;101195.25;5030821;28;20128;-69
2022/08/23 05:47:22;;;;;;;13.52;4.40;;;;;;;17.87;59.97;101197.22;5014580;28;20103;-69
2022/08/23 05:49:50;;;;;;;11.10;4.57;;;;;;;18.08;59.46;101193.63;5032062;28;20117;-70
2022/08/23 05:52:16;;;;;;;13.50;4.18;;;;;;;18.15;59.12;101188.25;5030745;28;20145;-69
2022/08/23 05:54:43;;;;;;;19.40;4.70;;;;;;;18.19;59.09;101198.53;5031340;28;20059;-68
2022/08/23 05:57:10;;;;;;;10.57;3.92;;;;;;;18.25;58.73;101194.19;5030946;28;20553;-69
2022/08/23 05:59:36;;;;;;;13.30;4.25;;;;;;;18.31;58.67;101193.38;5030073;28;20099;-68
2022/08/23 06:02:03;;;;;;;19.27;4.10;;;;;;;18.44;58.34;101203.47;5031099;28;20046;-69
2022/08/23 06:04:30;;;;;;;23.05;5.38;;;;;;;18.61;58.32;101199.38;5032137;28;20069;-68
2022/08/23 06:06:57;;;;;;;13.32;4.03;;;;;;;18.69;57.53;101203.81;5016442;28;20130;-68
2022/08/23 06:09:25;;;;;;;12.50;4.20;;;;;;;18.48;58.29;101202.03;5010954;28;20054;-67
2022/08/23 06:11:51;;;;;;;11.50;2.95;;;;;;;18.86;56.61;101202.44;5012062;28;20073;-68
2022/08/23 06:14:18;;;;;;;10.55;3.15;;;;;;;19.14;56.05;101209.63;5011623;28;20132;-67
2022/08/23 06:16:47;;;;;;;12.48;4.15;;;;;;;18.97;56.89;101212.75;5012173;28;20489;-67
2022/08/23 06:19:14;;;;;;;12.00;4.25;;;;;;;18.89;56.60;101212.88;5010954;28;20429;-69
2022/08/23 06:21:42;;;;;;;11.60;3.97;;;;;;;18.78;57.03;101206.13;5010672;28;20077;-67
2022/08/23 06:24:09;;;;;;;8.30;3.97;;;;;;;18.70;57.33;101208.22;5010042;28;20048;-67
2022/08/23 06:26:39;;;;;;;14.02;3.35;;;;;;;18.89;56.71;101212.03;5010857;28;20507;-67
2022/08/23 06:29:10;;;;;;;15.77;4.50;;;;;;;18.71;57.25;101210.72;5011796;28;20045;-67
2022/08/23 06:31:45;;;;;;;16.23;4.43;;;;;;;18.91;56.59;101205.38;5011074;28;20045;-67
2022/08/23 06:34:21;;;;;;;11.02;3.85;;;;;;;18.86;57.01;101207.00;5011105;28;20052;-67
2022/08/23 06:36:53;;;;;;;18.40;4.25;;;;;;;18.96;56.84;101207.50;5011347;28;20124;-67
2022/08/23 06:39:23;;;;;;;10.88;4.13;;;;;;;18.83;56.92;101208.28;5011698;28;20050;-68
2022/08/23 06:41:50;;;;;;;10.60;3.63;;;;;;;19.07;56.11;101214.22;5011476;28;20133;-68
2022/08/23 06:44:18;;;;;;;15.23;4.00;;;;;;;19.21;55.87;101214.06;5011388;28;20052;-68
2022/08/23 06:46:47;;;;;;;14.15;4.13;;;;;;;19.13;55.98;101216.13;5011080;28;20143;-68
2022/08/23 06:49:14;;;;;;;13.57;4.15;;;;;;;19.21;55.88;101213.25;5011006;28;20050;-68
2022/08/23 06:51:48;;;;;;;14.35;3.50;;;;;;;19.13;55.51;101218.84;5012231;28;20133;-68
2022/08/23 06:54:18;;;;;;;11.95;4.05;;;;;;;19.38;54.95;101222.69;5013040;28;20046;-68
2022/08/23 06:56:45;;;;;;;11.75;4.07;;;;;;;19.16;55.23;101218.44;5010175;28;20048;-68
2022/08/23 06:59:12;;;;;;;13.50;4.00;;;;;;;19.23;55.18;101222.00;5011027;28;20092;-68
2022/08/23 07:01:41;;;;;;;14.68;4.03;;;;;;;19.16;55.50;101227.44;5010323;28;20052;-67
2022/08/23 07:04:18;;;;;;;10.38;3.53;;;;;;;19.37;55.18;101226.44;5011542;28;20054;-67
2022/08/23 07:06:45;;;;;;;12.07;4.07;;;;;;;19.34;55.22;101226.84;5011267;28;20475;-67
2022/08/23 07:09:12;;;;;;;13.02;3.97;;;;;;;19.19;55.20;101234.34;5010548;28;20317;-67
2022/08/23 07:11:40;;;;;;;12.98;3.90;;;;;;;19.41;54.96;101230.41;5028563;28;20492;-67
2022/08/23 07:14:13;;;;;;;11.25;3.75;;;;;;;19.05;55.89;101229.91;5029920;28;20132;-67
2022/08/23 07:16:51;;;;;;;12.85;3.33;;;;;;;19.08;55.88;101226.78;5030253;28;20496;-68
2022/08/23 07:19:20;;;;;;;11.23;3.47;;;;;;;19.44;54.72;101229.16;5030634;28;20128;-67
2022/08/23 07:21:55;;;;;;;11.13;3.72;;;;;;;19.31;55.13;101230.00;5033992;28;20556;-67
2022/08/23 07:24:22;;;;;;;12.52;3.53;;;;;;;19.57;54.33;101223.75;5033672;28;20076;-68
2022/08/23 07:26:50;;;;;;;9.23;2.67;;;;;;;19.53;54.50;101240.72;5032549;28;22142;-67
2022/08/23 07:29:19;;;;;;;9.85;3.30;;;;;;;19.54;54.54;101226.06;5034519;28;20049;-67
2022/08/23 07:31:53;;;;;;;10.02;3.30;;;;;;;19.39;55.12;101232.53;5034351;28;20046;-67
2022/08/23 07:34:21;;;;;;;8.48;3.00;;;;;;;19.29;55.77;101226.63;5033847;28;20085;-69
2022/08/23 07:36:49;;;;;;;14.68;3.33;;;;;;;19.38;55.43;101228.13;5033586;28;20124;-68
2022/08/23 07:39:17;;;;;;;14.68;3.60;;;;;;;19.78;54.24;101227.34;5032623;28;20426;-67
2022/08/23 07:41:43;;;;;;;10.75;3.30;;;;;;;19.75;54.20;101231.34;5034087;28;20065;-68
2022/08/23 07:44:11;;;;;;;13.60;3.03;;;;;;;19.83;54.02;101230.28;5034343;28;20474;-67
2022/08/23 07:46:43;;;;;;;11.20;2.95;;;;;;;19.66;54.38;101235.28;5033151;28;20041;-68
2022/08/23 07:49:11;;;;;;;14.77;3.38;;;;;;;19.89;53.90;101233.00;5033798;28;20045;-68
2022/08/23 07:51:40;;;;;;;13.55;3.20;;;;;;;19.71;54.50;101233.63;5033702;28;20080;-67
2022/08/23 07:54:08;;;;;;;18.25;3.50;;;;;;;19.83;54.27;101231.16;5032908;28;20481;-67
2022/08/23 07:56:36;;;;;;;10.48;3.13;;;;;;;19.83;54.16;101242.03;5033545;28;20052;-68
2022/08/23 07:59:04;;;;;;;11.32;3.45;;;;;;;19.70;54.15;101237.41;5033050;28;20581;-67
2022/08/23 08:01:31;;;;;;;14.05;2.95;;;;;;;19.69;54.45;101226.72;5030036;28;20046;-67
2022/08/23 08:04:00;;;;;;;7.72;2.90;;;;;;;19.90;53.87;101231.13;5034064;28;20137;-68
2022/08/23 08:06:37;;;;;;;8.70;3.40;;;;;;;20.02;53.89;101236.78;5031752;28;20128;-68
2022/08/23 08:09:04;;;;;;;13.40;2.83;;;;;;;19.88;53.97;101239.50;4993875;28;20129;-67
2022/08/23 08:11:32;;;;;;;10.15;3.33;;;;;;;19.84;53.87;101242.88;4993166;28;20054;-68
2022/08/23 08:14:04;;;;;;;12.30;3.40;;;;;;;19.87;54.12;101248.72;4993641;28;20054;-68
2022/08/23 08:16:34;;;;;;;17.98;3.40;;;;;;;19.83;54.29;101250.19;4993243;28;20081;-67
2022/08/23 08:19:02;;;;;;;9.98;2.88;;;;;;;19.79;54.18;101250.81;4993934;28;20405;-67
2022/08/23 08:21:29;;;;;;;11.90;3.30;;;;;;;19.66;54.66;101259.78;4994620;28;20078;-67
2022/08/23 08:23:57;;;;;;;15.90;3.55;;;;;;;19.81;54.13;101254.16;5007341;28;20100;-68
2022/08/23 08:26:24;;;;;;;11.50;2.53;;;;;;;19.95;53.87;101248.50;5012550;28;20069;-67
2022/08/23 08:28:51;;;;;;;15.38;2.50;;;;;;;19.87;53.55;101247.91;5012581;28;20069;-67
2022/08/23 08:31:17;;;;;;;14.75;2.85;;;;;;;19.98;53.45;101247.25;5012295;28;20114;-67
2022/08/23 08:33:44;;;;;;;9.93;2.67;;;;;;;20.06;52.92;101252.47;5009278;28;20050;-67
2022/08/23 08:36:47;;;;;;;7.75;2.40;;;;;;;20.16;52.56;101246.63;5012918;28;20132;-67
2022/08/23 08:39:18;;;;;;;11.10;2.45;;;;;;;20.24;52.23;101243.66;5012638;28;20464;-67
2022/08/23 08:42:03;;;;;;;8.98;2.45;;;;;;;20.18;52.06;101247.25;5012527;28;20081;-68
2022/08/23 08:44:40;;;;;;;11.98;3.28;;;;;;;20.55;51.63;101247.63;5012433;28;20046;-68
2022/08/23 08:47:16;;;;;;;10.63;2.70;;;;;;;20.78;50.87;101250.69;5013417;28;20124;-67
2022/08/23 08:49:55;;;;;;;8.73;2.75;;;;;;;21.10;49.92;101250.78;5012937;28;20409;-68
2022/08/23 08:52:25;;;;;;;14.80;2.60;;;;;;;21.25;49.39;101247.78;5012414;28;20105;-68
2022/08/23 08:55:11;;;;;;;7.90;2.30;;;;;;;21.53;48.89;101247.44;5013255;28;20045;-68
2022/08/23 08:57:42;;;;;;;10.82;3.25;;;;;;;21.52;49.08;101252.03;5011895;28;20124;-67
2022/08/23 09:00:14;;;;;;;10.85;2.90;;;;;;;21.81;47.62;101256.06;5012647;28;20050;-68
2022/08/23 09:02:41;;;;;;;9.40;2.35;;;;;;;21.93;47.33;101253.44;5012070;28;20045;-68
2022/08/23 09:05:26;;;;;;;8.93;2.30;;;;;;;21.79;46.87;101249.09;5013032;28;20045;-68
2022/08/23 09:07:55;;;;;;;8.63;2.67;;;;;;;21.58;47.41;101250.31;5012760;28;20069;-68
2022/08/23 09:10:33;;;;;;;8.80;2.63;;;;;;;21.54;47.49;101251.81;5012598;28;20050;-69
2022/08/23 09:13:39;;;;;;;10.25;2.55;;;;;;;21.85;47.36;101251.81;5013065;28;20510;-68
2022/08/23 09:16:39;;;;;;;9.47;2.53;;;;;;;21.58;47.91;101255.78;4970941;28;20129;-69
2022/08/23 09:19:06;;;;;;;7.20;2.17;;;;;;;21.48;48.10;101255.41;4993828;28;20286;-68
2022/08/23 09:21:46;;;;;;;5.72;2.22;;;;;;;21.60;47.61;101250.94;4992950;28;20074;-68
2022/08/23 09:24:14;;;;;;;9.93;2.65;;;;;;;21.54;47.16;101247.19;4988834;28;20446;-68
2022/08/23 09:26:40;;;;;;;13.38;2.70;;;;;;;21.67;46.98;101250.88;4997001;28;20069;-68
2022/08/23 09:29:21;;;;;;;8.68;2.50;;;;;;;21.87;46.57;101253.47;4995629;28;20073;-68
2022/08/23 09:31:51;;;;;;;12.15;2.38;;;;;;;22.20;45.80;101256.78;4993687;28;20431;-69
2022/08/23 09:34:34;;;;;;;9.25;2.53;;;;;;;22.42;45.08;101246.25;4991807;28;20125;-68
2022/08/23 09:37:10;;;;;;;9.85;2.70;;;;;;;22.07;45.77;101246.78;4993375;28;20065;-68
2022/08/23 09:39:40;;;;;;;7.55;2.00;;;;;;;22.04;45.73;101247.22;4993837;28;20074;-69
2022/08/23 09:42:24;;;;;;;10.10;2.40;;;;;;;21.99;45.92;101251.72;4993801;28;20046;-69
2022/08/23 09:44:50;;;;;;;12.02;2.60;;;;;;;22.49;45.21;101248.94;4994642;28;20046;-69
2022/08/23 09:47:17;;;;;;;8.02;2.47;;;;;;;22.23;45.19;101248.13;4992362;28;20081;-69
2022/08/23 09:49:47;;;;;;;12.32;2.88;;;;;;;21.90;46.23;101245.69;4992070;28;20490;-69
2022/08/23 09:52:20;;;;;;;9.85;2.33;;;;;;;22.02;44.86;101243.06;4992158;28;20197;-69
2022/08/23 09:55:03;;;;;;;7.65;2.63;;;;;;;21.36;46.39;101242.47;4991748;28;20053;-69
2022/08/23 09:57:33;;;;;;;9.05;2.05;;;;;;;21.49;46.46;101244.28;4992445;28;20061;-69
2022/08/23 10:00:20;;;;;;;9.23;2.42;;;;;;;21.57;46.21;101252.22;4991209;28;20080;-69
2022/08/23 10:02:46;;;;;;;8.38;2.00;;;;;;;21.82;46.04;101254.16;4990265;28;20190;-69
2022/08/23 10:05:37;;;;;;;7.63;2.55;;;;;;;21.41;46.68;101249.16;4992030;28;20100;-69
2022/08/23 10:08:05;;;;;;;13.68;2.85;;;;;;;21.52;46.44;101243.84;4991839;28;20528;-69
2022/08/23 10:10:45;;;;;;;8.25;1.90;;;;;;;21.52;46.28;101249.28;4991891;28;20039;-69
2022/08/23 10:13:17;;;;;;;8.23;2.10;;;;;;;21.43;46.31;101247.06;4992925;28;20101;-69
2022/08/23 10:16:26;;;;;;;6.82;2.00;;;;;;;21.51;46.22;101244.06;4991806;28;20094;-69
2022/08/23 10:18:58;;;;;;;7.55;2.70;;;;;;;21.73;45.78;101239.91;5010449;28;20053;-69
2022/08/23 10:21:40;;;;;;;11.00;2.40;;;;;;;21.78;46.19;101248.28;5011389;28;20121;-69
2022/08/23 10:24:28;;;;;;;8.40;2.30;;;;;;;21.66;46.40;101250.03;5002758;28;20477;-69
2022/08/23 10:30:11;;;;;;;7.78;2.55;;;;;;;21.87;45.79;101234.38;5004114;28;20046;-69
2022/08/23 10:32:59;;;;;;;8.80;2.40;;;;;;;22.02;45.68;101241.19;5011286;28;20137;-69
2022/08/23 10:35:29;;;;;;;9.80;3.10;;;;;;;22.36;45.46;101241.69;5011441;28;20449;-69
2022/08/23 10:38:08;;;;;;;9.00;3.03;;;;;;;22.44;45.27;101232.34;5011476;28;20074;-69
2022/08/23 10:40:44;;;;;;;11.35;3.20;;;;;;;22.09;45.88;101235.66;5010997;28;20072;-69
2022/08/23 10:43:25;;;;;;;6.20;2.55;;;;;;;22.09;45.09;101247.41;5012330;28;20081;-69
2022/08/23 10:45:52;;;;;;;11.80;3.20;;;;;;;22.00;45.18;101237.00;5011558;28;20097;-69
2022/08/23 10:48:28;;;;;;;7.78;2.78;;;;;;;22.09;45.19;101232.91;5012139;28;20478;-69
2022/08/23 10:51:02;;;;;;;11.15;3.00;;;;;;;22.45;43.25;101242.22;5011673;28;20092;-69
2022/08/23 10:53:45;;;;;;;10.13;2.83;;;;;;;22.22;44.46;101241.00;5011129;28;20050;-68
2022/08/23 10:56:19;;;;;;;9.52;3.15;;;;;;;22.43;43.73;101233.41;5013263;28;20137;-68
2022/08/23 10:58:54;;;;;;;6.32;2.70;;;;;;;22.30;43.72;101237.97;5015405;28;20043;-68
2022/08/23 11:01:33;;;;;;;10.50;2.83;;;;;;;22.21;43.71;101239.31;5015960;28;20073;-68
2022/08/23 11:04:13;;;;;;;9.93;2.70;;;;;;;22.51;43.97;101244.91;5015837;28;20052;-68
2022/08/23 11:06:44;;;;;;;10.80;2.78;;;;;;;22.62;43.40;101240.59;5014995;28;20137;-69
2022/08/23 11:09:13;;;;;;;6.60;2.28;;;;;;;22.73;43.13;101242.56;5014586;28;20548;-69
2022/08/23 11:12:05;;;;;;;12.43;3.03;;;;;;;22.50;43.82;101242.44;5014896;28;20133;-69
2022/08/23 11:14:56;;;;;;;11.35;2.97;;;;;;;22.76;42.60;101247.56;5013907;28;20042;-68
2022/08/23 11:17:32;;;;;;;9.02;2.60;;;;;;;22.62;42.44;101237.84;5014653;28;20049;-68
2022/08/23 11:20:03;;;;;;;10.52;3.30;;;;;;;22.53;43.08;101247.41;5014693;28;20116;-68
2022/08/23 11:22:32;;;;;;;8.57;2.58;;;;;;;22.60;42.43;101241.88;5014020;28;20066;-68
2022/08/23 11:25:03;;;;;;;8.27;2.58;;;;;;;22.86;42.03;101246.22;5010620;28;20048;-68
2022/08/23 11:27:33;;;;;;;9.80;2.60;;;;;;;22.84;41.78;101242.84;5014650;28;20406;-68
2022/08/23 11:30:31;;;;;;;5.90;2.63;;;;;;;23.11;41.19;101248.81;5015223;28;20476;-68
2022/08/23 11:33:01;;;;;;;6.95;2.40;;;;;;;22.93;40.68;101249.69;5014135;28;20048;-68
2022/08/23 11:35:37;;;;;;;13.32;2.50;;;;;;;22.94;40.78;101249.44;5014884;28;20050;-68
2022/08/23 11:38:10;;;;;;;9.82;2.17;;;;;;;23.30;40.02;101249.66;5013743;28;20050;-68
2022/08/23 11:40:54;;;;;;;13.10;2.22;;;;;;;23.06;40.56;101255.00;5013711;28;20042;-68
2022/08/23 11:43:24;;;;;;;8.10;2.28;;;;;;;23.19;41.08;101241.19;5014206;28;20086;-68
2022/08/23 11:45:50;;;;;;;9.48;2.15;;;;;;;24.45;38.40;101260.25;5013639;28;20434;-69
2022/08/23 11:48:35;;;;;;;6.95;1.90;;;;;;;24.74;37.71;101257.56;5008991;28;20056;-69
2022/08/23 11:51:17;;;;;;;8.07;2.53;;;;;;;24.38;38.24;101256.75;5013184;28;20401;-68
2022/08/23 11:53:53;;;;;;;11.25;2.83;;;;;;;24.15;38.89;101261.16;5010578;28;20137;-68
2022/08/23 11:56:57;;;;;;;5.72;2.15;;;;;;;24.61;37.80;101254.03;5014023;28;20065;-68